Norton, Ohio
Current Conditions -  °F | °C
As of 4:54 PM on Monday 22 Dec 2014 (Local Time) from KAKR Reporting Station
Clear Clear  
Wind Chill: 37°   Ceiling: Unl
Heat Index: 41°   Visibility: 7mi
Dew Point: 31°   Wind: 6mph
Humidity: 67%   Direction: 110°ESE
Pressure: 29.96"   Gusts: NA
Location:  41.03°N, 81.65°W
Report Text: KAKR 222154Z AUTO 11005KT 7SM CLR 05/M01 A2996 RMK AO2 SLP154 T00501006
Loading
Personal Weather Stations






























Interactive Weather Map New forecast layout! Learn more

10-Day Weather Forecast

Advertisements
Track Severe Weather on mobile